TAF and METAR

METAR for Yangon International Airport

VYYY 192100Z 30001KT 6000 NSC 27/24 Q1011 NOSIG
Report created 19. okt 23:00
wind 1 knots from WNW (300°) visibility 6000 meters No significant clouds. Temperature 27° with dewpoint at 24° (Humidity 83.71%) Pressure 1011 hPa no significant weather change expected the next couple of hours

TAF for Yangon International Airport

TAF VYYY 191700Z 1918/2018 34006KT 7000 SCT018 FEW025TCU BECMG 1918/1921 31006KT 600 HZ BECMG 2000/2002 4000 BR BECMG 2004/2009 32008KTN 6000 SCT016 FEW020TCU
Report created 19. okt 19:00

between 19. okt 20:00 - 20. okt 20:00

wind 6 knots from NNW (340°) visibility 7000 meters scattered clouds (~50% cover) at 1800 feet some clouds (~25% cover) at 2500 feet of type towering cumulus

becoming between 19. okt 20:00 - 19. okt 23:00

wind 6 knots from NW (310°)
Yangon International Airport in Myanmar at 33m

Latest 5 airports